Time;durP1;ratioP1;P1;durP2;ratioP2;P2;SDS_P1;SDS_P2;PMS_P1;PMS_P2;Temp;Humidity;BMP_temperature;BMP_pressure;BME280_temperature;BME280_humidity;BME280_pressure;Samples;Min_cycle;Max_cycle;Signal;HPM_P1;HPM_P2
2022/08/29 00:01:00;;;;;;;7.53;3.25;;;16.90;99.90;;;;;;5025967;28;20044;-59
2022/08/29 00:03:26;;;;;;;5.95;3.10;;;16.90;99.90;;;;;;5043338;28;20041;-58
2022/08/29 00:05:52;;;;;;;6.72;3.00;;;16.90;99.90;;;;;;5042532;28;20044;-58
2022/08/29 00:08:18;;;;;;;7.57;3.05;;;16.90;99.90;;;;;;5042864;28;20049;-60
2022/08/29 00:10:44;;;;;;;9.68;3.55;;;16.90;99.90;;;;;;5042606;28;20068;-59
2022/08/29 00:13:11;;;;;;;6.60;2.92;;;17.00;99.90;;;;;;5043349;28;20696;-59
2022/08/29 00:15:37;;;;;;;9.52;3.15;;;17.00;99.90;;;;;;5042957;28;20078;-59
2022/08/29 00:18:03;;;;;;;8.13;2.60;;;17.00;99.90;;;;;;5043384;28;20044;-60
2022/08/29 00:20:31;;;;;;;5.18;2.60;;;16.90;99.90;;;;;;5042934;28;20407;-59
2022/08/29 00:22:58;;;;;;;8.98;3.03;;;17.00;99.90;;;;;;5042610;28;20053;-59
2022/08/29 00:25:24;;;;;;;8.18;2.75;;;16.90;99.90;;;;;;5043348;28;20123;-58
2022/08/29 00:27:50;;;;;;;7.50;3.00;;;16.90;99.90;;;;;;5042148;28;20515;-59
2022/08/29 00:30:18;;;;;;;6.50;2.60;;;17.00;99.90;;;;;;5043091;28;20131;-58
2022/08/29 00:32:44;;;;;;;10.30;2.80;;;16.90;99.90;;;;;;5042654;28;20124;-58
2022/08/29 00:35:16;;;;;;;7.70;3.50;;;17.20;99.90;;;;;;5042279;28;20167;-59
2022/08/29 00:37:42;;;;;;;8.32;2.85;;;17.00;99.90;;;;;;5041963;28;20076;-59
2022/08/29 00:40:12;;;;;;;8.93;2.70;;;17.00;99.90;;;;;;5043054;28;20045;-59
2022/08/29 00:42:38;;;;;;;7.22;2.75;;;17.00;99.90;;;;;;5042570;28;20077;-58
2022/08/29 00:45:08;;;;;;;6.18;3.20;;;16.90;99.90;;;;;;5024737;28;20044;-59
2022/08/29 00:47:37;;;;;;;11.07;3.30;;;17.00;99.90;;;;;;5043332;28;20076;-58
2022/08/29 00:50:07;;;;;;;10.43;3.38;;;17.00;99.90;;;;;;5042828;28;20064;-59
2022/08/29 00:52:41;;;;;;;6.43;3.22;;;16.90;99.90;;;;;;5042326;28;20036;-58
2022/08/29 00:55:12;;;;;;;7.10;3.15;;;16.90;99.90;;;;;;5042893;28;20059;-58
2022/08/29 00:57:42;;;;;;;7.38;2.88;;;16.90;99.90;;;;;;5041573;28;20076;-59
2022/08/29 01:00:10;;;;;;;8.18;3.05;;;16.90;99.90;;;;;;5024383;28;20094;-58
2022/08/29 01:02:38;;;;;;;8.73;2.90;;;16.90;99.90;;;;;;5042645;28;20041;-59
2022/08/29 01:05:06;;;;;;;11.30;3.28;;;16.90;99.90;;;;;;5041612;28;20121;-59
2022/08/29 01:07:32;;;;;;;6.72;3.20;;;16.90;99.90;;;;;;5041262;28;20045;-60
2022/08/29 01:09:58;;;;;;;7.45;2.67;;;16.90;99.90;;;;;;5023729;28;20312;-58
2022/08/29 01:12:25;;;;;;;7.40;3.33;;;16.90;99.90;;;;;;5042567;28;20041;-59
2022/08/29 01:14:58;;;;;;;10.80;3.60;;;16.90;99.90;;;;;;5043440;28;20508;-59
2022/08/29 01:17:28;;;;;;;7.68;3.03;;;16.90;99.90;;;;;;5062145;28;20070;-58
2022/08/29 01:19:59;;;;;;;10.57;3.20;;;16.80;99.90;;;;;;5043938;28;20048;-59
2022/08/29 01:22:28;;;;;;;6.78;3.15;;;16.90;99.90;;;;;;5061102;28;20079;-58
2022/08/29 01:24:56;;;;;;;7.05;2.97;;;16.70;99.90;;;;;;5061725;28;20044;-58
2022/08/29 01:27:25;;;;;;;8.25;2.80;;;16.70;99.90;;;;;;5061738;28;20040;-58
2022/08/29 01:29:51;;;;;;;8.95;2.78;;;16.70;99.90;;;;;;5043977;28;20057;-59
2022/08/29 01:32:17;;;;;;;7.35;2.80;;;16.80;99.90;;;;;;5062064;28;20047;-58
2022/08/29 01:34:43;;;;;;;6.80;3.03;;;16.80;99.90;;;;;;5061725;28;20495;-58
2022/08/29 01:37:12;;;;;;;9.55;3.08;;;16.80;99.90;;;;;;5060075;28;20047;-58
2022/08/29 01:39:40;;;;;;;6.90;2.63;;;16.80;99.90;;;;;;5061777;28;20120;-58
2022/08/29 01:42:10;;;;;;;8.43;2.97;;;16.80;99.90;;;;;;5061844;28;20388;-58
2022/08/29 01:44:37;;;;;;;8.77;3.03;;;16.70;99.90;;;;;;5043183;28;20078;-59
2022/08/29 01:47:04;;;;;;;9.40;2.95;;;16.70;99.90;;;;;;5062028;28;20037;-59
2022/08/29 01:49:32;;;;;;;7.43;2.83;;;16.70;99.90;;;;;;5061822;28;20056;-58
2022/08/29 01:51:58;;;;;;;5.10;2.65;;;16.70;99.90;;;;;;5060174;28;20037;-58
2022/08/29 01:54:24;;;;;;;10.05;3.17;;;16.80;99.90;;;;;;5043742;28;20048;-59
2022/08/29 01:56:51;;;;;;;6.82;2.78;;;16.80;99.90;;;;;;5060786;28;20052;-59
2022/08/29 01:59:21;;;;;;;7.53;3.00;;;16.80;99.90;;;;;;5061541;28;20036;-58
2022/08/29 02:01:58;;;;;;;6.40;2.58;;;16.80;99.90;;;;;;5060809;28;20048;-58
2022/08/29 02:04:24;;;;;;;7.53;3.00;;;16.90;99.90;;;;;;5061787;28;20044;-59
2022/08/29 02:06:50;;;;;;;7.53;2.80;;;16.90;99.90;;;;;;5044831;28;20122;-59
2022/08/29 02:09:16;;;;;;;12.13;2.97;;;16.90;99.90;;;;;;5040725;28;20043;-59
2022/08/29 02:11:44;;;;;;;7.35;2.80;;;16.90;99.90;;;;;;5041319;28;20059;-58
2022/08/29 02:14:10;;;;;;;6.47;2.97;;;16.90;99.90;;;;;;5041557;28;20045;-58
2022/08/29 02:16:35;;;;;;;6.38;2.83;;;16.80;99.90;;;;;;5040505;28;20123;-59
2022/08/29 02:19:01;;;;;;;5.75;3.00;;;16.80;99.90;;;;;;5041223;28;20098;-59
2022/08/29 02:21:29;;;;;;;8.18;3.10;;;16.80;99.90;;;;;;5041226;28;20037;-59
2022/08/29 02:23:59;;;;;;;8.68;2.80;;;16.80;99.90;;;;;;5039465;28;20037;-58
2022/08/29 02:26:24;;;;;;;6.65;2.83;;;16.80;99.90;;;;;;5040707;28;20095;-58
2022/08/29 02:28:51;;;;;;;7.93;2.88;;;16.80;99.90;;;;;;5040332;28;20495;-58
2022/08/29 02:31:19;;;;;;;7.95;2.80;;;16.90;99.90;;;;;;5041421;28;20072;-59
2022/08/29 02:33:45;;;;;;;8.50;3.03;;;16.90;99.90;;;;;;5040509;28;20049;-58
2022/08/29 02:36:11;;;;;;;7.03;2.80;;;16.80;99.90;;;;;;5041012;28;20048;-58
2022/08/29 02:38:38;;;;;;;7.90;3.20;;;16.80;99.90;;;;;;5040212;28;20045;-58
2022/08/29 02:41:04;;;;;;;8.02;3.10;;;16.80;99.90;;;;;;5022821;28;20053;-58
2022/08/29 02:43:30;;;;;;;7.47;3.05;;;16.70;99.90;;;;;;5041373;28;20831;-57
2022/08/29 02:45:56;;;;;;;10.27;2.90;;;16.50;99.90;;;;;;5040498;28;20124;-58
2022/08/29 02:48:22;;;;;;;9.82;3.05;;;16.60;99.90;;;;;;5040801;28;20395;-58
2022/08/29 02:50:52;;;;;;;5.78;2.35;;;16.60;99.90;;;;;;5040695;28;20045;-59
2022/08/29 02:53:20;;;;;;;7.55;2.72;;;16.60;99.90;;;;;;5040102;28;20045;-58
2022/08/29 02:55:47;;;;;;;9.05;2.97;;;16.60;99.90;;;;;;5040388;28;20420;-59
2022/08/29 02:58:14;;;;;;;7.32;2.75;;;16.60;99.90;;;;;;5040605;28;20160;-58
2022/08/29 03:00:40;;;;;;;8.70;2.50;;;16.70;99.90;;;;;;5043420;28;20610;-58
2022/08/29 03:03:06;;;;;;;6.55;2.50;;;16.70;99.90;;;;;;5045143;28;20045;-58
2022/08/29 03:05:35;;;;;;;10.80;2.88;;;16.70;99.90;;;;;;5043828;28;20063;-59
2022/08/29 03:08:04;;;;;;;7.32;2.58;;;16.70;99.90;;;;;;5044351;28;20429;-59
2022/08/29 03:10:31;;;;;;;7.70;2.30;;;16.70;99.90;;;;;;5044295;28;20746;-59
2022/08/29 03:12:57;;;;;;;8.07;2.72;;;16.70;99.90;;;;;;5043782;28;20091;-58
2022/08/29 03:15:23;;;;;;;6.95;2.40;;;16.70;99.90;;;;;;5044431;28;20382;-58
2022/08/29 03:17:49;;;;;;;15.15;2.70;;;16.70;99.90;;;;;;5026517;28;20040;-58
2022/08/29 03:20:16;;;;;;;8.93;2.60;;;16.80;99.90;;;;;;5044448;28;20063;-58
2022/08/29 03:22:43;;;;;;;7.85;2.67;;;16.80;99.90;;;;;;5042704;28;20453;-58
2022/08/29 03:25:11;;;;;;;7.68;2.58;;;16.80;99.90;;;;;;5044434;28;20087;-58
2022/08/29 03:27:37;;;;;;;10.85;2.63;;;16.80;99.90;;;;;;5044004;28;20114;-55
2022/08/29 03:30:05;;;;;;;7.28;2.70;;;16.80;99.90;;;;;;5043931;28;20077;-60
2022/08/29 03:32:31;;;;;;;8.35;2.55;;;16.70;99.90;;;;;;5044432;28;20112;-58
2022/08/29 03:34:57;;;;;;;7.60;2.60;;;16.70;99.90;;;;;;5044129;28;20132;-58
2022/08/29 03:37:22;;;;;;;8.38;2.20;;;16.80;99.90;;;;;;5042621;28;20411;-58
2022/08/29 03:39:48;;;;;;;10.15;2.80;;;16.70;99.90;;;;;;5043904;28;20540;-58
2022/08/29 03:42:14;;;;;;;8.35;2.88;;;16.70;99.90;;;;;;5044203;28;20044;-58
2022/08/29 03:44:41;;;;;;;9.13;2.92;;;16.80;99.90;;;;;;5043933;28;20399;-58
2022/08/29 03:47:07;;;;;;;8.63;2.40;;;16.70;99.90;;;;;;5043346;28;20075;-58
2022/08/29 03:49:33;;;;;;;9.43;2.90;;;16.70;99.90;;;;;;5044009;28;20756;-58
2022/08/29 03:51:59;;;;;;;10.05;2.85;;;16.70;99.90;;;;;;5043448;28;20045;-59
2022/08/29 03:54:26;;;;;;;6.90;2.83;;;16.70;99.90;;;;;;5042905;28;20116;-59
2022/08/29 03:56:52;;;;;;;8.57;2.90;;;16.80;99.90;;;;;;5025687;28;20049;-58
2022/08/29 03:59:18;;;;;;;7.10;2.75;;;16.80;99.90;;;;;;5043624;28;20045;-59
2022/08/29 04:01:47;;;;;;;7.20;2.67;;;16.80;99.90;;;;;;5043459;28;20057;-59
2022/08/29 04:05:05;;;;;;;8.88;3.15;;;16.80;99.90;;;;;;5042856;28;20445;-58
2022/08/29 04:07:01;;;;;;;8.18;3.00;;;16.80;99.90;;;;;;5042249;28;20118;-58
2022/08/29 04:09:27;;;;;;;8.43;2.80;;;16.80;99.90;;;;;;5042314;28;20045;-58
2022/08/29 04:11:53;;;;;;;9.05;2.70;;;16.90;99.90;;;;;;5042474;28;20049;-58
2022/08/29 04:14:21;;;;;;;8.57;3.05;;;16.90;99.90;;;;;;5043452;28;20052;-59
2022/08/29 04:16:48;;;;;;;9.07;2.80;;;16.90;99.90;;;;;;5042596;28;20487;-58
2022/08/29 04:19:15;;;;;;;8.38;3.25;;;16.80;99.90;;;;;;5043196;28;20440;-59
2022/08/29 04:21:41;;;;;;;9.63;3.00;;;16.80;99.90;;;;;;5042670;28;20051;-58
2022/08/29 04:24:07;;;;;;;7.10;3.10;;;16.80;99.90;;;;;;5042968;28;20060;-58
2022/08/29 04:26:34;;;;;;;7.45;3.10;;;16.80;99.90;;;;;;5043054;28;20053;-59
2022/08/29 04:29:00;;;;;;;9.60;2.58;;;16.70;99.90;;;;;;5043272;28;20132;-58
2022/08/29 04:31:26;;;;;;;7.00;2.60;;;16.80;99.90;;;;;;5042197;28;20123;-61
2022/08/29 04:33:52;;;;;;;7.68;2.78;;;16.90;99.90;;;;;;5042065;28;20049;-58
2022/08/29 04:36:18;;;;;;;8.35;2.90;;;16.90;99.90;;;;;;5042658;28;20056;-58
2022/08/29 04:38:44;;;;;;;10.70;2.90;;;16.90;99.90;;;;;;5042433;28;20045;-58
2022/08/29 04:41:13;;;;;;;10.05;2.88;;;16.80;99.90;;;;;;5042695;28;20045;-58
2022/08/29 04:43:40;;;;;;;9.25;2.70;;;16.70;99.90;;;;;;5042288;28;20041;-58
2022/08/29 04:46:06;;;;;;;8.93;2.50;;;16.70;99.90;;;;;;5042690;28;20465;-58
2022/08/29 04:48:32;;;;;;;11.95;2.83;;;16.70;99.90;;;;;;5043011;28;20037;-58
2022/08/29 04:51:00;;;;;;;8.38;3.13;;;16.70;99.90;;;;;;5042166;28;20110;-57
2022/08/29 04:53:27;;;;;;;7.68;2.78;;;16.60;99.90;;;;;;5041998;28;20037;-59
2022/08/29 04:56:02;;;;;;;9.68;3.03;;;16.60;99.90;;;;;;5042378;28;20051;-58
2022/08/29 04:58:28;;;;;;;7.18;3.00;;;16.60;99.90;;;;;;5041674;28;20045;-58
2022/08/29 05:00:54;;;;;;;8.32;3.08;;;16.70;99.90;;;;;;5042210;28;20036;-58
2022/08/29 05:03:21;;;;;;;9.05;2.85;;;16.70;99.90;;;;;;5042350;28;20109;-59
2022/08/29 05:05:57;;;;;;;8.00;3.08;;;16.70;99.90;;;;;;5040918;28;20125;-59
2022/08/29 05:08:24;;;;;;;7.97;2.97;;;16.70;99.90;;;;;;5041367;28;20045;-59
2022/08/29 05:10:49;;;;;;;12.15;3.08;;;16.80;99.90;;;;;;5024238;28;20045;-58
2022/08/29 05:13:15;;;;;;;9.80;3.25;;;16.70;99.90;;;;;;5041380;28;20126;-59
2022/08/29 05:15:41;;;;;;;12.80;3.13;;;16.70;99.90;;;;;;5042001;28;20049;-58
2022/08/29 05:18:06;;;;;;;9.07;2.80;;;16.70;99.90;;;;;;5042188;28;20049;-58
2022/08/29 05:20:32;;;;;;;9.05;2.60;;;16.70;99.90;;;;;;5042319;28;20048;-58
2022/08/29 05:22:58;;;;;;;8.95;3.08;;;16.70;99.90;;;;;;5040412;28;20056;-59
2022/08/29 05:25:24;;;;;;;10.27;3.25;;;16.60;99.90;;;;;;5041792;28;20400;-59
2022/08/29 05:27:50;;;;;;;5.78;2.60;;;16.60;99.90;;;;;;5041788;28;20044;-58
2022/08/29 05:30:16;;;;;;;10.75;3.20;;;16.60;99.90;;;;;;5041279;28;20033;-59
2022/08/29 05:32:42;;;;;;;8.60;2.88;;;16.60;99.90;;;;;;5041775;28;20407;-58
2022/08/29 05:35:09;;;;;;;13.57;3.28;;;16.50;99.90;;;;;;5024024;28;20041;-58
2022/08/29 05:37:36;;;;;;;7.88;3.10;;;16.60;99.90;;;;;;5040708;28;20096;-57
2022/08/29 05:40:02;;;;;;;9.63;3.53;;;16.60;99.90;;;;;;5041666;28;20388;-58
2022/08/29 05:42:28;;;;;;;8.90;3.08;;;16.70;99.90;;;;;;5041482;28;20522;-59
2022/08/29 05:44:54;;;;;;;11.15;3.60;;;16.80;99.90;;;;;;5041376;28;20037;-58
2022/08/29 05:47:21;;;;;;;7.47;3.17;;;16.80;99.90;;;;;;5041194;28;20048;-59
2022/08/29 05:49:48;;;;;;;9.30;3.20;;;16.90;99.90;;;;;;5041501;28;20120;-58
2022/08/29 05:52:16;;;;;;;10.18;3.20;;;16.90;99.90;;;;;;5040674;28;20122;-59
2022/08/29 05:54:43;;;;;;;9.40;3.58;;;17.00;99.90;;;;;;5041122;28;20048;-58
2022/08/29 05:57:11;;;;;;;9.23;3.40;;;17.00;99.90;;;;;;5041030;28;20041;-58
2022/08/29 05:59:37;;;;;;;7.80;3.40;;;17.00;99.90;;;;;;5023186;28;20051;-57
2022/08/29 06:02:05;;;;;;;11.82;3.53;;;16.90;99.90;;;;;;5041846;28;20565;-57
2022/08/29 06:04:31;;;;;;;8.95;3.70;;;17.00;99.90;;;;;;5040753;28;20047;-58
2022/08/29 06:06:57;;;;;;;8.65;3.15;;;17.00;99.90;;;;;;5040096;28;20427;-58
2022/08/29 06:09:22;;;;;;;9.40;3.45;;;17.00;99.90;;;;;;5041012;28;20639;-59
2022/08/29 06:11:51;;;;;;;10.00;3.50;;;17.20;99.90;;;;;;5040219;28;20779;-58
2022/08/29 06:14:18;;;;;;;10.88;3.40;;;17.10;99.90;;;;;;5041019;28;20064;-58
2022/08/29 06:16:44;;;;;;;9.00;3.70;;;17.10;99.90;;;;;;5040798;28;20048;-58
2022/08/29 06:19:10;;;;;;;12.07;3.83;;;17.10;99.90;;;;;;5040860;28;20102;-59
2022/08/29 06:21:36;;;;;;;11.48;3.70;;;17.20;99.90;;;;;;5039473;28;20040;-54
2022/08/29 06:24:03;;;;;;;8.15;3.38;;;17.30;99.90;;;;;;5041554;28;20430;-59
2022/08/29 06:26:30;;;;;;;13.80;3.88;;;17.30;99.90;;;;;;5040791;28;20040;-58
2022/08/29 06:28:56;;;;;;;14.15;3.90;;;17.20;99.90;;;;;;5040442;28;20041;-59
2022/08/29 06:31:26;;;;;;;9.25;3.40;;;17.40;99.90;;;;;;5022978;28;20554;-58
2022/08/29 06:33:55;;;;;;;12.35;3.80;;;17.40;99.90;;;;;;5039893;28;20467;-58
2022/08/29 06:36:21;;;;;;;8.75;3.58;;;17.70;99.90;;;;;;5039708;28;20045;-58
2022/08/29 06:38:47;;;;;;;10.75;3.85;;;17.90;99.90;;;;;;5040424;28;20084;-59
2022/08/29 06:41:14;;;;;;;10.70;3.60;;;18.30;99.90;;;;;;5040358;28;20084;-58
2022/08/29 06:43:40;;;;;;;8.00;3.50;;;18.50;99.90;;;;;;5023093;28;20041;-58
2022/08/29 06:46:07;;;;;;;12.30;3.72;;;18.60;99.90;;;;;;5039887;28;20041;-58
2022/08/29 06:48:33;;;;;;;8.68;3.35;;;19.10;99.90;;;;;;5041362;28;20456;-59
2022/08/29 06:51:02;;;;;;;10.55;3.17;;;19.30;99.90;;;;;;5022464;28;20128;-59
2022/08/29 06:53:28;;;;;;;10.77;3.13;;;19.60;99.90;;;;;;5039511;28;20045;-59
2022/08/29 06:55:54;;;;;;;14.07;3.55;;;19.70;99.90;;;;;;5039918;28;20558;-59
2022/08/29 06:58:20;;;;;;;10.18;3.20;;;19.70;99.90;;;;;;5040526;28;20044;-58
2022/08/29 07:00:46;;;;;;;10.43;3.83;;;19.70;99.90;;;;;;5040431;28;20044;-59
2022/08/29 07:03:12;;;;;;;11.77;3.25;;;19.60;99.90;;;;;;5040396;28;20529;-58
2022/08/29 07:05:38;;;;;;;12.65;3.38;;;19.50;99.90;;;;;;5040093;28;20112;-58
2022/08/29 07:08:03;;;;;;;11.32;3.30;;;19.40;99.90;;;;;;5040351;28;20125;-58
2022/08/29 07:10:29;;;;;;;10.68;3.20;;;19.50;99.90;;;;;;5039721;28;20076;-59
2022/08/29 07:12:55;;;;;;;9.55;3.40;;;19.70;99.90;;;;;;5040556;28;20049;-59
2022/08/29 07:15:22;;;;;;;13.52;3.20;;;19.70;99.90;;;;;;5040167;28;20041;-58
2022/08/29 07:17:48;;;;;;;12.27;3.38;;;19.70;99.90;;;;;;5040712;28;20045;-57
2022/08/29 07:20:15;;;;;;;12.75;3.97;;;19.80;99.90;;;;;;5039888;28;20043;-58
2022/08/29 07:22:41;;;;;;;8.60;3.83;;;19.70;99.90;;;;;;5039425;28;20084;-57
2022/08/29 07:25:09;;;;;;;12.00;3.95;;;19.70;99.90;;;;;;5040463;28;20041;-58
2022/08/29 07:27:35;;;;;;;15.43;3.80;;;19.60;99.90;;;;;;5040131;28;20714;-54
2022/08/29 07:30:02;;;;;;;11.20;3.45;;;19.50;99.90;;;;;;5040826;28;20098;-56
2022/08/29 07:32:28;;;;;;;12.80;4.05;;;19.40;99.90;;;;;;5022197;28;20044;-58
2022/08/29 07:34:54;;;;;;;13.30;4.28;;;19.30;99.90;;;;;;5039861;28;20048;-59
2022/08/29 07:37:19;;;;;;;14.73;3.78;;;19.30;99.90;;;;;;5039431;28;20131;-58
2022/08/29 07:39:45;;;;;;;13.18;3.95;;;19.30;99.90;;;;;;5040321;28;20048;-58
2022/08/29 07:42:11;;;;;;;13.32;3.88;;;19.40;99.90;;;;;;5040636;28;20049;-58
2022/08/29 07:44:36;;;;;;;12.43;4.00;;;19.40;99.90;;;;;;5022705;28;20178;-54
2022/08/29 07:47:02;;;;;;;11.25;4.00;;;19.30;99.90;;;;;;5044455;28;20542;-58
2022/08/29 07:49:31;;;;;;;12.63;3.88;;;19.50;99.90;;;;;;5043893;28;20159;-57
2022/08/29 07:51:56;;;;;;;13.63;3.88;;;19.50;99.90;;;;;;5042549;28;20477;-58
2022/08/29 07:54:22;;;;;;;16.33;4.10;;;19.40;99.90;;;;;;5025881;28;20045;-58
2022/08/29 07:56:50;;;;;;;17.08;4.50;;;19.50;99.90;;;;;;5043304;28;20048;-57
2022/08/29 07:59:17;;;;;;;11.20;3.65;;;19.50;99.90;;;;;;5043694;28;20037;-58
2022/08/29 08:01:43;;;;;;;14.25;4.00;;;19.40;99.90;;;;;;5042804;28;20048;-57
2022/08/29 08:04:10;;;;;;;16.15;4.18;;;19.40;99.90;;;;;;5044090;28;20467;-58
2022/08/29 08:06:37;;;;;;;14.50;4.15;;;19.40;99.90;;;;;;5023921;28;20048;-57
2022/08/29 08:09:09;;;;;;;12.45;4.10;;;19.30;99.90;;;;;;5043573;28;20045;-57
2022/08/29 08:11:37;;;;;;;14.88;4.10;;;19.30;99.90;;;;;;5043337;28;20057;-57
2022/08/29 08:14:03;;;;;;;11.40;4.32;;;19.40;99.90;;;;;;5043757;28;20396;-58
2022/08/29 08:16:30;;;;;;;13.85;4.38;;;19.50;99.90;;;;;;5042583;28;20048;-58
2022/08/29 08:18:56;;;;;;;19.33;4.72;;;19.60;99.90;;;;;;5043028;28;20044;-57
2022/08/29 08:21:23;;;;;;;15.68;4.43;;;19.60;99.90;;;;;;5042699;28;20757;-57
2022/08/29 08:23:49;;;;;;;12.73;4.10;;;19.90;99.90;;;;;;5043362;28;20052;-57
2022/08/29 08:26:15;;;;;;;18.08;4.40;;;20.40;99.90;;;;;;5042649;28;20048;-57
2022/08/29 08:28:41;;;;;;;11.43;3.97;;;20.80;99.90;;;;;;5043130;28;20124;-57
2022/08/29 08:31:09;;;;;;;12.20;3.90;;;21.50;99.90;;;;;;5025562;28;20146;-59
2022/08/29 08:33:38;;;;;;;10.63;3.70;;;21.70;99.90;;;;;;5042628;28;20052;-57
2022/08/29 08:36:16;;;;;;;12.13;3.85;;;21.80;99.90;;;;;;5042712;28;20041;-55
2022/08/29 08:38:43;;;;;;;10.57;4.15;;;22.00;99.90;;;;;;5042618;28;20403;-58
2022/08/29 08:41:26;;;;;;;17.23;4.57;;;21.90;99.90;;;;;;5042620;28;20040;-57
2022/08/29 08:43:59;;;;;;;9.02;3.72;;;21.70;99.90;;;;;;5042586;28;20041;-58
2022/08/29 08:46:36;;;;;;;12.25;3.72;;;21.60;99.90;;;;;;5042105;28;20049;-58
2022/08/29 08:49:06;;;;;;;10.27;3.70;;;21.60;99.90;;;;;;5025337;28;20639;-58
2022/08/29 08:51:36;;;;;;;10.93;3.20;;;21.60;99.90;;;;;;5042495;28;20045;-58
2022/08/29 08:54:06;;;;;;;13.48;3.95;;;21.60;99.90;;;;;;5043548;28;20106;-58
2022/08/29 08:56:40;;;;;;;8.55;3.15;;;21.50;99.90;;;;;;5041659;28;20045;-58
2022/08/29 08:59:12;;;;;;;11.23;3.30;;;21.30;99.90;;;;;;5042109;28;20041;-58
2022/08/29 09:01:42;;;;;;;11.18;3.85;;;21.20;99.90;;;;;;5042307;28;20492;-58
2022/08/29 09:04:16;;;;;;;9.90;3.70;;;21.00;99.90;;;;;;5042846;28;20040;-58
2022/08/29 09:06:47;;;;;;;;;;;20.80;99.90;;;;;;5041105;28;20457;-57
2022/08/29 09:09:29;;;;;;;12.20;3.97;;;20.70;99.90;;;;;;5042176;28;19996;-59
2022/08/29 09:12:13;;;;;;;8.05;3.95;;;20.50;99.90;;;;;;5041561;28;20753;-58
2022/08/29 09:14:48;;;;;;;10.63;3.45;;;20.50;99.90;;;;;;5041908;28;20053;-58
2022/08/29 09:17:31;;;;;;;11.13;3.67;;;20.40;99.90;;;;;;5041337;28;20049;-58
2022/08/29 09:19:59;;;;;;;11.57;3.88;;;20.40;99.90;;;;;;5042308;28;20087;-58
2022/08/29 09:22:29;;;;;;;13.07;4.28;;;20.40;99.90;;;;;;5023866;28;20204;-58
2022/08/29 09:25:01;;;;;;;7.93;3.08;;;20.40;99.90;;;;;;5041866;28;20582;-58
2022/08/29 09:27:30;;;;;;;9.60;3.30;;;20.40;99.90;;;;;;5042192;28;20128;-58
2022/08/29 09:30:07;;;;;;;9.85;3.53;;;20.30;99.90;;;;;;5040857;28;20102;-58
2022/08/29 09:32:34;;;;;;;9.98;3.60;;;20.30;99.90;;;;;;5042441;28;20041;-59
2022/08/29 09:35:01;;;;;;;8.75;3.38;;;20.30;99.90;;;;;;5024347;28;20064;-58
2022/08/29 09:37:31;;;;;;;14.30;3.88;;;20.30;99.90;;;;;;5006143;28;20044;-58
2022/08/29 09:40:17;;;;;;;9.68;3.78;;;20.30;99.90;;;;;;5023511;28;20582;-59
2022/08/29 09:42:50;;;;;;;13.88;3.58;;;20.30;99.90;;;;;;5040986;28;20503;-57
2022/08/29 09:45:22;;;;;;;9.18;3.47;;;20.40;99.90;;;;;;5041977;28;20072;-58
2022/08/29 09:47:48;;;;;;;9.25;3.95;;;20.40;99.90;;;;;;5041550;28;20049;-57
2022/08/29 09:50:23;;;;;;;11.48;4.25;;;20.60;99.90;;;;;;5041185;28;20045;-68
2022/08/29 09:52:59;;;;;;;13.05;4.20;;;20.60;99.90;;;;;;5040728;28;20522;-62
2022/08/29 09:55:37;;;;;;;13.68;3.92;;;20.70;99.90;;;;;;5041272;28;20061;-61
2022/08/29 09:58:05;;;;;;;13.95;4.25;;;20.80;99.90;;;;;;5040659;28;20099;-61
2022/08/29 10:00:35;;;;;;;13.10;4.30;;;20.90;99.90;;;;;;5041630;28;20525;-61
2022/08/29 10:03:04;;;;;;;12.38;3.85;;;20.90;99.90;;;;;;5040513;28;20041;-62
2022/08/29 10:05:40;;;;;;;8.18;3.25;;;21.00;99.90;;;;;;5040982;28;20033;-61
2022/08/29 10:08:23;;;;;;;10.82;3.72;;;20.90;99.90;;;;;;5040713;28;20053;-61
2022/08/29 10:10:55;;;;;;;12.55;3.88;;;21.00;99.90;;;;;;5040175;28;20730;-61
2022/08/29 10:13:42;;;;;;;11.20;4.45;;;21.00;99.90;;;;;;5041035;28;20084;-61
2022/08/29 10:16:27;;;;;;;12.48;4.25;;;20.90;99.90;;;;;;5040406;28;20049;-61
2022/08/29 10:19:08;;;;;;;10.38;3.90;;;20.90;99.90;;;;;;5041308;28;20045;-61
2022/08/29 10:21:45;;;;;;;10.68;3.92;;;20.90;99.90;;;;;;5040579;28;20071;-60
2022/08/29 10:24:50;;;;;;;11.38;3.25;;;20.90;99.90;;;;;;5041000;28;20351;-61
2022/08/29 10:27:52;;;;;;;10.48;3.20;;;20.90;99.90;;;;;;5053596;28;20133;-61
2022/08/29 10:30:24;;;;;;;10.13;3.20;;;20.90;99.90;;;;;;5043875;28;20127;-62
2022/08/29 10:33:14;;;;;;;10.82;3.30;;;20.80;99.90;;;;;;5042906;28;20613;-61
2022/08/29 10:35:49;;;;;;;9.35;3.38;;;20.90;99.90;;;;;;5060216;28;20416;-61
2022/08/29 10:38:58;;;;;;;7.78;3.17;;;20.80;99.90;;;;;;5060302;28;20045;-61
2022/08/29 10:41:31;;;;;;;8.77;3.33;;;20.90;99.90;;;;;;5004282;28;20048;-61
2022/08/29 10:44:25;;;;;;;7.07;3.00;;;20.80;99.90;;;;;;5060697;28;20063;-61
2022/08/29 10:47:13;;;;;;;9.68;3.03;;;20.80;99.90;;;;;;5060051;28;20048;-62
2022/08/29 10:50:00;;;;;;;8.18;2.97;;;20.80;99.90;;;;;;5060818;28;20456;-60
2022/08/29 10:53:00;;;;;;;9.82;3.28;;;20.80;99.90;;;;;;5060040;28;20044;-62
2022/08/29 10:55:37;;;;;;;10.38;3.13;;;20.70;99.90;;;;;;5060722;28;20135;-60
2022/08/29 10:58:08;;;;;;;7.70;2.80;;;20.70;99.90;;;;;;5060839;28;20044;-61
2022/08/29 11:00:51;;;;;;;10.70;3.30;;;20.60;99.90;;;;;;5060684;28;20458;-61
2022/08/29 11:03:38;;;;;;;6.28;2.65;;;20.60;99.90;;;;;;5060786;28;20080;-61
2022/08/29 11:06:21;;;;;;;10.07;3.47;;;20.60;99.90;;;;;;5050148;28;20450;-62
2022/08/29 11:09:01;;;;;;;7.43;3.22;;;20.60;99.90;;;;;;5051111;28;20048;-61
2022/08/29 11:11:29;;;;;;;6.70;2.83;;;20.60;99.90;;;;;;5060568;28;20135;-62
2022/08/29 11:14:01;;;;;;;7.32;2.90;;;20.60;99.90;;;;;;5060510;28;20415;-63
2022/08/29 11:16:40;;;;;;;10.02;2.90;;;20.60;99.90;;;;;;5060718;28;20049;-63
2022/08/29 11:19:19;;;;;;;8.05;2.67;;;20.70;99.90;;;;;;5061031;28;20047;-62
2022/08/29 11:22:20;;;;;;;5.82;2.53;;;20.80;99.90;;;;;;5063307;28;20087;-62
2022/08/29 11:24:58;;;;;;;8.63;3.10;;;20.90;99.90;;;;;;4965870;28;20054;-63
2022/08/29 11:27:40;;;;;;;7.05;2.67;;;21.00;99.90;;;;;;5054430;28;20063;-62
2022/08/29 11:30:21;;;;;;;7.93;2.75;;;21.10;99.90;;;;;;5046421;28;20119;-63
2022/08/29 11:33:34;;;;;;;6.70;2.55;;;21.20;99.90;;;;;;5063903;28;20059;-62
2022/08/29 11:36:18;;;;;;;5.95;2.58;;;21.40;99.90;;;;;;4981417;28;20069;-61
2022/08/29 11:39:02;;;;;;;5.87;2.60;;;21.70;99.90;;;;;;4981954;28;20050;-61
2022/08/29 11:41:49;;;;;;;9.02;2.70;;;22.00;99.90;;;;;;5040262;28;20139;-62
2022/08/29 11:44:32;;;;;;;7.18;2.50;;;22.20;99.90;;;;;;5063242;28;20044;-62
2022/08/29 11:46:58;;;;;;;8.75;2.70;;;22.10;99.90;;;;;;5063984;28;20405;-62
2022/08/29 11:49:30;;;;;;;9.35;2.65;;;22.30;99.90;;;;;;5063871;28;20671;-61
2022/08/29 11:52:15;;;;;;;6.20;2.38;;;22.60;99.90;;;;;;5063189;28;20044;-61
2022/08/29 11:55:13;;;;;;;240.60;23.38;;;22.80;99.90;;;;;;5064041;28;20105;-61
2022/08/29 11:57:51;;;;;;;14.02;2.88;;;23.20;99.90;;;;;;5055926;28;20110;-61
2022/08/29 12:00:37;;;;;;;8.45;2.95;;;23.20;99.90;;;;;;5062973;28;20142;-61
2022/08/29 12:03:04;;;;;;;8.40;2.92;;;23.00;99.90;;;;;;5063800;28;20053;-60
2022/08/29 12:05:53;;;;;;;10.38;2.40;;;23.10;99.90;;;;;;5057068;28;20123;-63
2022/08/29 12:08:51;;;;;;;8.90;2.90;;;23.30;99.90;;;;;;5043324;28;20636;-60
2022/08/29 12:11:17;;;;;;;6.90;2.30;;;23.40;99.90;;;;;;4998376;28;20408;-61
2022/08/29 12:13:49;;;;;;;4.93;2.33;;;23.50;99.90;;;;;;5043087;28;20503;-60
2022/08/29 12:16:24;;;;;;;6.30;2.50;;;23.40;99.90;;;;;;5042995;28;20056;-60
2022/08/29 12:18:54;;;;;;;5.55;2.28;;;23.40;99.90;;;;;;5043575;28;20048;-62
2022/08/29 12:21:35;;;;;;;6.95;2.35;;;23.40;99.90;;;;;;5043119;28;20090;-60
2022/08/29 12:24:24;;;;;;;4.50;2.20;;;23.50;99.90;;;;;;5043598;28;20423;-61
2022/08/29 12:26:50;;;;;;;7.00;2.67;;;23.10;99.90;;;;;;5042610;28;20132;-60
2022/08/29 12:29:26;;;;;;;6.55;2.78;;;23.00;99.90;;;;;;5043295;28;20171;-60
2022/08/29 12:32:00;;;;;;;7.82;2.53;;;23.10;99.90;;;;;;5041883;28;20497;-57
2022/08/29 12:34:44;;;;;;;6.45;2.30;;;23.10;99.90;;;;;;5042396;28;20095;-57
2022/08/29 12:37:43;;;;;;;6.55;2.15;;;23.10;99.90;;;;;;5024713;28;20049;-57
2022/08/29 12:40:40;;;;;;;6.40;2.30;;;23.20;99.90;;;;;;5043072;28;20561;-57
2022/08/29 12:43:05;;;;;;;6.45;2.38;;;23.20;99.90;;;;;;5043441;28;20048;-57
2022/08/29 12:45:35;;;;;;;6.97;2.40;;;23.20;99.90;;;;;;5043063;28;20053;-58
2022/08/29 12:48:19;;;;;;;5.97;2.50;;;23.30;99.90;;;;;;5043504;28;20055;-58
2022/08/29 12:50:47;;;;;;;8.73;2.30;;;23.30;99.90;;;;;;5042072;28;20748;-58
2022/08/29 12:53:34;;;;;;;5.90;2.28;;;23.40;99.90;;;;;;5043063;28;20477;-58
2022/08/29 12:56:16;;;;;;;7.25;2.45;;;23.40;99.90;;;;;;5042906;28;20041;-58
2022/08/29 12:58:52;;;;;;;5.93;2.13;;;23.50;99.90;;;;;;5042227;28;20047;-58
2022/08/29 13:01:32;;;;;;;7.28;2.50;;;23.40;99.90;;;;;;5042677;28;20041;-58